sensor_id;sensor_type;location;lat;lon;timestamp;P1;durP1;ratioP1;P2;durP2;ratioP2
38190;SDS011;25191;47.510;19.124;2022-08-24T00:02:54;4.38;;;3.50;;
38190;SDS011;25191;47.510;19.124;2022-08-24T00:12:54;4.43;;;3.50;;
38190;SDS011;25191;47.510;19.124;2022-08-24T00:22:57;3.67;;;3.38;;
38190;SDS011;25191;47.510;19.124;2022-08-24T00:32:57;4.10;;;3.72;;
38190;SDS011;25191;47.510;19.124;2022-08-24T00:42:58;6.38;;;3.92;;
38190;SDS011;25191;47.510;19.124;2022-08-24T00:53:03;3.83;;;3.40;;
38190;SDS011;25191;47.510;19.124;2022-08-24T01:03:09;4.25;;;3.50;;
38190;SDS011;25191;47.510;19.124;2022-08-24T01:13:10;3.90;;;3.47;;
38190;SDS011;25191;47.510;19.124;2022-08-24T01:33:38;5.95;;;3.45;;
38190;SDS011;25191;47.510;19.124;2022-08-24T01:43:39;3.90;;;3.47;;
38190;SDS011;25191;47.510;19.124;2022-08-24T01:53:39;3.80;;;3.50;;
38190;SDS011;25191;47.510;19.124;2022-08-24T02:03:40;3.88;;;3.50;;
38190;SDS011;25191;47.510;19.124;2022-08-24T02:13:40;4.72;;;3.75;;
38190;SDS011;25191;47.510;19.124;2022-08-24T02:23:41;3.88;;;3.47;;
38190;SDS011;25191;47.510;19.124;2022-08-24T02:33:42;5.93;;;3.40;;
38190;SDS011;25191;47.510;19.124;2022-08-24T02:43:43;5.65;;;3.80;;
38190;SDS011;25191;47.510;19.124;2022-08-24T02:53:43;3.75;;;3.45;;
38190;SDS011;25191;47.510;19.124;2022-08-24T03:03:44;4.18;;;3.50;;
38190;SDS011;25191;47.510;19.124;2022-08-24T03:13:45;4.10;;;3.70;;
38190;SDS011;25191;47.510;19.124;2022-08-24T03:23:46;3.67;;;3.38;;
38190;SDS011;25191;47.510;19.124;2022-08-24T03:33:48;5.00;;;3.92;;
38190;SDS011;25191;47.510;19.124;2022-08-24T03:43:49;10.18;;;5.82;;
38190;SDS011;25191;47.510;19.124;2022-08-24T03:53:50;5.50;;;4.90;;
38190;SDS011;25191;47.510;19.124;2022-08-24T04:13:53;4.85;;;3.58;;
38190;SDS011;25191;47.510;19.124;2022-08-24T04:23:56;4.80;;;4.40;;
38190;SDS011;25191;47.510;19.124;2022-08-24T04:33:57;6.60;;;4.10;;
38190;SDS011;25191;47.510;19.124;2022-08-24T04:43:58;8.05;;;4.20;;
38190;SDS011;25191;47.510;19.124;2022-08-24T04:53:59;7.73;;;4.13;;
38190;SDS011;25191;47.510;19.124;2022-08-24T05:04:00;5.50;;;3.83;;
38190;SDS011;25191;47.510;19.124;2022-08-24T05:14:04;10.40;;;5.10;;
38190;SDS011;25191;47.510;19.124;2022-08-24T05:24:05;5.90;;;4.68;;
38190;SDS011;25191;47.510;19.124;2022-08-24T05:34:06;8.63;;;4.82;;
38190;SDS011;25191;47.510;19.124;2022-08-24T05:44:07;8.35;;;5.13;;
38190;SDS011;25191;47.510;19.124;2022-08-24T05:54:08;4.93;;;3.80;;
38190;SDS011;25191;47.510;19.124;2022-08-24T06:04:10;4.45;;;4.05;;
38190;SDS011;25191;47.510;19.124;2022-08-24T06:14:13;9.00;;;4.20;;
38190;SDS011;25191;47.510;19.124;2022-08-24T06:24:15;5.60;;;4.40;;
38190;SDS011;25191;47.510;19.124;2022-08-24T06:34:16;7.68;;;4.53;;
38190;SDS011;25191;47.510;19.124;2022-08-24T06:44:17;6.60;;;4.00;;
38190;SDS011;25191;47.510;19.124;2022-08-24T06:54:18;9.07;;;4.75;;
38190;SDS011;25191;47.510;19.124;2022-08-24T07:04:22;7.30;;;4.45;;
38190;SDS011;25191;47.510;19.124;2022-08-24T07:14:23;10.80;;;5.10;;
38190;SDS011;25191;47.510;19.124;2022-08-24T07:24:24;7.00;;;4.38;;
38190;SDS011;25191;47.510;19.124;2022-08-24T07:34:25;17.90;;;4.38;;
38190;SDS011;25191;47.510;19.124;2022-08-24T07:44:26;6.28;;;5.20;;
38190;SDS011;25191;47.510;19.124;2022-08-24T07:54:26;8.75;;;4.95;;
38190;SDS011;25191;47.510;19.124;2022-08-24T08:04:28;9.73;;;4.77;;
38190;SDS011;25191;47.510;19.124;2022-08-24T08:14:30;7.78;;;4.07;;
38190;SDS011;25191;47.510;19.124;2022-08-24T08:24:31;8.43;;;4.23;;
38190;SDS011;25191;47.510;19.124;2022-08-24T08:34:32;9.15;;;3.72;;
38190;SDS011;25191;47.510;19.124;2022-08-24T08:55:11;9.48;;;3.67;;
38190;SDS011;25191;47.510;19.124;2022-08-24T09:26:17;25.02;;;4.78;;
38190;SDS011;25191;47.510;19.124;2022-08-24T09:37:26;32.58;;;6.75;;
38190;SDS011;25191;47.510;19.124;2022-08-24T10:28:32;21.70;;;8.27;;
38190;SDS011;25191;47.510;19.124;2022-08-24T11:09:54;13.65;;;9.18;;
38190;SDS011;25191;47.510;19.124;2022-08-24T11:19:57;30.13;;;10.02;;
38190;SDS011;25191;47.510;19.124;2022-08-24T11:30:05;15.53;;;8.90;;
38190;SDS011;25191;47.510;19.124;2022-08-24T11:40:09;22.63;;;9.07;;
38190;SDS011;25191;47.510;19.124;2022-08-24T12:00:17;15.18;;;7.47;;
38190;SDS011;25191;47.510;19.124;2022-08-24T12:10:40;16.58;;;7.60;;
38190;SDS011;25191;47.510;19.124;2022-08-24T12:20:52;12.48;;;6.35;;
38190;SDS011;25191;47.510;19.124;2022-08-24T12:30:53;11.25;;;5.53;;
38190;SDS011;25191;47.510;19.124;2022-08-24T12:41:04;9.55;;;5.38;;
38190;SDS011;25191;47.510;19.124;2022-08-24T13:01:44;9.40;;;4.00;;
38190;SDS011;25191;47.510;19.124;2022-08-24T13:23:25;6.78;;;4.03;;
38190;SDS011;25191;47.510;19.124;2022-08-24T13:33:05;8.13;;;4.95;;
38190;SDS011;25191;47.510;19.124;2022-08-24T13:43:11;7.10;;;4.90;;
38190;SDS011;25191;47.510;19.124;2022-08-24T14:24:44;10.15;;;5.93;;
38190;SDS011;25191;47.510;19.124;2022-08-24T14:35:04;14.05;;;5.13;;
38190;SDS011;25191;47.510;19.124;2022-08-24T15:06:05;9.68;;;4.57;;
38190;SDS011;25191;47.510;19.124;2022-08-24T15:16:20;10.50;;;5.70;;
38190;SDS011;25191;47.510;19.124;2022-08-24T16:06:49;9.30;;;4.30;;
38190;SDS011;25191;47.510;19.124;2022-08-24T17:36:58;10.93;;;4.38;;
38190;SDS011;25191;47.510;19.124;2022-08-24T17:47:00;12.52;;;4.30;;
38190;SDS011;25191;47.510;19.124;2022-08-24T17:57:02;12.10;;;4.25;;
